Portada
METAR-TAF:

METAR-TAF

Aeroports :

N'Djamena, Txad

latitud: 12-08N, longitud: 015-02E, altitud: 295 m

Observació

L'informe es va fer fa 49 minuts, a les 03:00 UTC
Vent 2 kt del Nord-Est
Temperatura 21°C
Humitat 60%
Pressió 1008 hPa
Visibilitat: 8000 m

METAR: FTTJ 140300Z 04002KT 8000 NSC 21/13 Q1008 NOSIG

Hora: 04:49 (03:49 UTC)

Pronòstic

L'informe es va fer fa 3 hores i 45 minuts, a les 00:04 UTC
Pronòstic vàlid del 14 a les 00 UTC al 15 a les 06 UTC
Vent 5 kt amb direcció variable
Visibilitat: 7000 m
Temporalment
l' 14 a les 06 UTC al 14 a les 10 UTC
Visibilitat: 4000 m
Pols estès
Temporalment
l' 14 a les 15 UTC al 14 a les 21 UTC
Visibilitat: 4000 m
Pols estès

TAF: FTTJ 140004Z 1400/1506 VRB05KT 7000 NSC TEMPO 1406/1410 4000 DU TEMPO 1415/1421 4000 DU

Observacions i pronòstics meteorològics de més de 4000 aeroports (METAR i TAF).

Les estacions disponibles són els punts grocs i vermells al mapa.

Posi el ratolí al punt desitjat per veure el nom de l'estació.

Feu clic per veure les observacions i els pronòstics meteorològics.

Per canviar el mapa: feu clic els botons verds amb una creu de color negre per apropar; al botó verd amb un guió per allunyar la imatge; o en les fletxes verdes per a mapes adjacents.


METAR-TAF: